This is the latest recevied weather packets stored in our database for station/object N5MDT. If no packets are shown the sender has not sent any weather packets the latest 1 day(s).
| Time | Temp. | Humidity | Pressure | Rain* | Wind** | Luminosity | Snow |
|---|---|---|---|---|---|---|---|
| 1778027313 | 28.89° C | 71% | 1007.5 hPa | 0 mm | - | - | - |
| 1778020112 | 30.56° C | 66% | 1007.4 hPa | 0 mm | - | - | - |
| 1778019512 | 31.11° C | 66% | 1007.4 hPa | 0 mm | - | - | - |
| 1778018912 | 31.11° C | 66% | 1007.6 hPa | 0 mm | - | - | - |
| 1778012911 | 29.44° C | 71% | 1008.7 hPa | 0 mm | - | - | - |
| 1778012311 | 29.44° C | 70% | 1008.9 hPa | 0 mm | - | - | - |
| 1778011711 | 29.44° C | 70% | 1009 hPa | 0 mm | - | - | - |
| 1778011111 | 29.44° C | 71% | 1009.2 hPa | 0 mm | - | - | - |
| 1778010511 | 29.44° C | 72% | 1009.3 hPa | 0 mm | - | - | - |
| 1778009911 | 28.89° C | 73% | 1009.3 hPa | 0 mm | - | - | - |
| 1778009311 | 28.89° C | 73% | 1009.4 hPa | 0 mm | - | - | - |
| 1778008711 | 28.89° C | 73% | 1009.4 hPa | 0 mm | - | - | - |
| 1778000910 | 26.67° C | 80% | 1010.1 hPa | 0 mm | - | - | - |
| 1778000310 | 26.11° C | 80% | 1010.2 hPa | 0 mm | - | - | - |
| 1777999710 | 26.11° C | 80% | 1010.2 hPa | 0 mm | - | - | - |
| 1777995509 | 25° C | 82% | 1010.2 hPa | 0 mm | - | - | - |
| 1777994909 | 25° C | 83% | 1010.1 hPa | 0 mm | - | - | - |
| 1777994309 | 24.44° C | 83% | 1010.1 hPa | 0 mm | - | - | - |
| 1777993709 | 24.44° C | 84% | 1010.2 hPa | 0 mm | - | - | - |
| 1777992509 | 23.89° C | 85% | 1010.2 hPa | 0 mm | - | - | - |
* Rain latest hour (hover to see other rain measurements)
** Current wind speed in m/s (hover to see current wind gust speed)